Time;durP1;ratioP1;P1;durP2;ratioP2;P2;SDS_P1;SDS_P2;PMS_P1;PMS_P2;Temp;Humidity;BMP_temperature;BMP_pressure;BME280_temperature;BME280_humidity;BME280_pressure;Samples;Min_cycle;Max_cycle;Signal;HPM_P1;HPM_P2
2024/01/11 00:00:54;;;;;;;8.80;6.25;;;15.30;99.90;;;;;;4591835;19;20007;-72
2024/01/11 00:02:44;;;;;;;9.98;7.25;;;15.30;99.90;;;;;;4591499;19;20092;-72
2024/01/11 00:04:20;;;;;;;9.65;6.50;;;15.30;99.90;;;;;;4592318;19;20007;-72
2024/01/11 00:05:54;;;;;;;8.45;6.20;;;15.30;99.90;;;;;;4590457;19;20018;-72
2024/01/11 00:07:28;;;;;;;7.70;5.75;;;15.30;99.90;;;;;;4591507;19;20356;-72
2024/01/11 00:09:04;;;;;;;8.75;6.05;;;15.30;99.90;;;;;;4590217;19;20007;-72
2024/01/11 00:10:39;;;;;;;8.52;6.07;;;15.30;99.90;;;;;;4590634;19;19999;-72
2024/01/11 00:12:14;;;;;;;8.60;6.60;;;15.30;99.90;;;;;;4591412;19;19999;-72
2024/01/11 00:13:49;;;;;;;8.55;6.55;;;15.30;99.90;;;;;;4591330;19;20007;-72
2024/01/11 00:15:24;;;;;;;7.28;5.75;;;15.30;99.90;;;;;;4590945;19;20319;-72
2024/01/11 00:16:58;;;;;;;8.68;6.63;;;15.30;99.90;;;;;;4591275;19;20325;-72
2024/01/11 00:18:34;;;;;;;8.90;6.53;;;15.30;99.90;;;;;;4591373;19;20316;-72
2024/01/11 00:20:08;;;;;;;7.10;5.45;;;15.30;99.90;;;;;;4591160;19;20006;-72
2024/01/11 00:21:42;;;;;;;7.00;5.53;;;15.40;99.90;;;;;;4591448;19;20062;-72
2024/01/11 00:23:18;;;;;;;7.38;5.13;;;15.40;99.90;;;;;;4591542;19;20006;-72
2024/01/11 00:24:51;;;;;;;8.02;5.93;;;15.40;99.90;;;;;;4591462;19;20005;-72
2024/01/11 00:26:25;;;;;;;8.40;5.95;;;15.40;99.90;;;;;;4589930;19;20002;-72
2024/01/11 00:28:01;;;;;;;8.40;6.13;;;15.40;99.90;;;;;;4590002;19;20015;-72
2024/01/11 00:29:36;;;;;;;8.70;6.05;;;15.40;99.90;;;;;;4591059;19;20445;-72
2024/01/11 00:31:12;;;;;;;7.15;5.63;;;15.40;99.90;;;;;;4588795;19;20010;-72
2024/01/11 00:32:47;;;;;;;7.28;6.18;;;15.40;99.90;;;;;;4590913;19;20098;-72
2024/01/11 00:34:21;;;;;;;7.82;6.22;;;15.40;99.90;;;;;;4591335;19;20029;-72
2024/01/11 00:35:55;;;;;;;7.55;6.05;;;15.40;99.90;;;;;;4590141;19;20006;-72
2024/01/11 00:37:31;;;;;;;8.68;6.43;;;15.40;99.90;;;;;;4591463;19;20074;-72
2024/01/11 00:39:06;;;;;;;7.88;5.97;;;15.40;99.90;;;;;;4594495;19;20006;-72
2024/01/11 00:40:41;;;;;;;8.43;6.38;;;15.40;99.90;;;;;;4595566;19;20010;-72
2024/01/11 00:42:16;;;;;;;8.40;6.18;;;15.50;99.90;;;;;;4595788;19;20422;-72
2024/01/11 00:43:50;;;;;;;7.57;6.43;;;15.50;99.90;;;;;;4595728;19;19998;-72
2024/01/11 00:45:24;;;;;;;7.35;5.38;;;15.40;99.90;;;;;;4594949;19;20015;-72
2024/01/11 00:46:59;;;;;;;7.13;5.65;;;15.40;99.90;;;;;;4594454;19;20332;-72
2024/01/11 00:48:33;;;;;;;6.75;5.05;;;15.40;99.90;;;;;;4595279;19;20426;-72
2024/01/11 00:50:07;;;;;;;8.15;6.13;;;15.40;99.90;;;;;;4595366;19;19999;-72
2024/01/11 00:51:43;;;;;;;7.65;6.10;;;15.40;99.90;;;;;;4595389;19;20006;-72
2024/01/11 00:53:18;;;;;;;7.75;5.22;;;15.40;99.90;;;;;;4595579;19;20010;-72
2024/01/11 00:54:52;;;;;;;7.38;5.75;;;15.30;99.90;;;;;;4595246;19;20002;-72
2024/01/11 00:56:27;;;;;;;6.95;5.47;;;15.40;99.90;;;;;;4593948;19;20011;-72
2024/01/11 00:58:01;;;;;;;7.90;5.53;;;15.40;99.90;;;;;;4594098;19;20298;-72
2024/01/11 00:59:36;;;;;;;6.07;4.85;;;15.40;99.90;;;;;;4594791;19;20003;-71
2024/01/11 01:12:44;;;;;;;6.45;4.60;;;15.40;99.90;;;;;;4592282;19;20028;-71
2024/01/11 01:14:19;;;;;;;6.50;4.78;;;15.40;99.90;;;;;;4593429;19;20030;-72
2024/01/11 01:15:53;;;;;;;6.47;4.90;;;15.40;99.90;;;;;;4593513;19;19998;-72
2024/01/11 01:17:27;;;;;;;7.40;5.38;;;15.40;99.90;;;;;;4594415;19;20002;-71
2024/01/11 01:19:03;;;;;;;6.32;5.20;;;15.40;99.90;;;;;;4594867;19;20058;-71
2024/01/11 01:20:37;;;;;;;6.50;4.57;;;15.50;99.90;;;;;;4594681;19;20035;-71
2024/01/11 01:22:11;;;;;;;6.68;4.82;;;15.50;99.90;;;;;;4593888;19;20013;-72
2024/01/11 01:23:48;;;;;;;6.88;5.07;;;15.50;99.90;;;;;;4595054;19;20308;-71
2024/01/11 01:25:23;;;;;;;6.53;4.90;;;15.50;99.90;;;;;;4594721;19;20007;-72
2024/01/11 01:26:57;;;;;;;5.57;4.35;;;15.50;99.90;;;;;;4594878;19;20002;-72
2024/01/11 01:28:33;;;;;;;6.95;4.50;;;15.50;99.90;;;;;;4594636;19;20006;-72
2024/01/11 01:30:08;;;;;;;6.20;4.40;;;15.50;99.90;;;;;;4594518;19;20003;-72
2024/01/11 01:31:42;;;;;;;8.23;5.00;;;15.50;99.90;;;;;;4593925;19;20011;-72
2024/01/11 01:33:17;;;;;;;6.85;5.05;;;15.50;99.90;;;;;;4595240;19;20074;-72
2024/01/11 01:34:53;;;;;;;6.53;5.00;;;15.50;99.90;;;;;;4594473;19;20007;-71
2024/01/11 01:36:26;;;;;;;6.97;4.90;;;15.50;99.90;;;;;;4594420;19;20005;-71
2024/01/11 01:38:02;;;;;;;7.00;4.97;;;15.50;99.90;;;;;;4594886;19;20010;-72
2024/01/11 01:39:38;;;;;;;5.78;4.38;;;15.50;99.90;;;;;;4594349;19;20073;-72
2024/01/11 01:41:12;;;;;;;6.07;4.20;;;15.50;99.90;;;;;;4593036;19;20030;-72
2024/01/11 01:42:48;;;;;;;5.97;3.90;;;15.50;99.90;;;;;;4594062;19;20013;-72
2024/01/11 01:44:22;;;;;;;6.45;4.35;;;15.50;99.90;;;;;;4592900;19;20002;-72
2024/01/11 01:45:57;;;;;;;5.50;4.45;;;15.50;99.90;;;;;;4593898;19;20002;-72
2024/01/11 01:47:33;;;;;;;8.13;4.13;;;15.50;99.90;;;;;;4592914;19;20066;-71
2024/01/11 01:49:07;;;;;;;5.18;3.63;;;15.50;99.90;;;;;;4593835;19;20033;-72
2024/01/11 01:50:42;;;;;;;6.32;4.50;;;15.50;99.90;;;;;;4591506;19;20009;-72
2024/01/11 01:52:18;;;;;;;5.20;3.67;;;15.50;99.90;;;;;;4593043;19;20010;-71
2024/01/11 01:53:53;;;;;;;5.93;4.22;;;15.50;99.90;;;;;;4592780;19;20037;-71
2024/01/11 01:55:28;;;;;;;5.90;4.25;;;15.50;99.90;;;;;;4593750;19;20023;-72
2024/01/11 01:57:03;;;;;;;4.75;3.63;;;15.50;99.90;;;;;;4592763;19;20034;-71
2024/01/11 01:58:37;;;;;;;5.28;3.65;;;15.50;99.90;;;;;;4593662;19;19995;-71
2024/01/11 02:00:15;;;;;;;6.43;3.97;;;15.50;99.90;;;;;;4594185;19;20422;-72
2024/01/11 02:01:51;;;;;;;5.47;4.07;;;15.50;99.90;;;;;;4593299;19;20090;-72
2024/01/11 02:03:25;;;;;;;5.72;4.70;;;15.50;99.90;;;;;;4593809;19;20013;-72
2024/01/11 02:05:00;;;;;;;6.78;4.10;;;15.50;99.90;;;;;;4592965;19;20062;-72
2024/01/11 02:06:35;;;;;;;6.40;4.38;;;15.50;99.90;;;;;;4593492;19;20078;-72
2024/01/11 02:08:10;;;;;;;5.95;4.35;;;15.50;99.90;;;;;;4593722;19;19999;-71
2024/01/11 02:09:44;;;;;;;5.13;3.83;;;15.50;99.90;;;;;;4593749;19;20087;-72
2024/01/11 02:11:19;;;;;;;5.60;4.00;;;15.50;99.90;;;;;;4592256;19;20418;-71
2024/01/11 02:12:54;;;;;;;5.28;4.07;;;15.50;99.90;;;;;;4593694;19;20013;-72
2024/01/11 02:14:28;;;;;;;4.97;4.05;;;15.60;99.90;;;;;;4593609;19;20006;-71
2024/01/11 02:16:04;;;;;;;6.80;4.55;;;15.50;99.90;;;;;;4593650;19;20013;-71
2024/01/11 02:17:40;;;;;;;4.65;3.22;;;15.60;99.90;;;;;;4593815;19;20481;-72
2024/01/11 02:19:14;;;;;;;5.40;3.80;;;15.50;99.90;;;;;;4592266;19;20082;-71
2024/01/11 02:20:50;;;;;;;5.22;3.78;;;15.60;99.90;;;;;;4592239;19;20306;-71
2024/01/11 02:22:35;;;;;;;5.93;3.90;;;15.60;99.90;;;;;;4591100;19;20030;-72
2024/01/11 02:24:09;;;;;;;6.15;3.97;;;15.60;99.90;;;;;;4592054;19;20474;-72
2024/01/11 02:25:44;;;;;;;5.53;4.00;;;15.60;99.90;;;;;;4592137;19;20011;-72
2024/01/11 02:27:18;;;;;;;5.97;3.92;;;15.60;99.90;;;;;;4593031;19;20010;-72
2024/01/11 02:28:52;;;;;;;4.93;3.58;;;15.50;99.90;;;;;;4593375;19;19998;-72
2024/01/11 02:30:29;;;;;;;5.53;4.10;;;15.60;99.90;;;;;;4593083;19;20012;-72
2024/01/11 02:32:03;;;;;;;4.40;3.28;;;15.60;99.90;;;;;;4592556;19;20452;-72
2024/01/11 02:33:39;;;;;;;5.18;3.65;;;15.50;99.90;;;;;;4591872;19;20039;-72
2024/01/11 02:35:17;;;;;;;4.53;3.05;;;15.50;99.90;;;;;;4592993;19;20026;-72
2024/01/11 02:36:51;;;;;;;4.90;3.53;;;15.50;99.90;;;;;;4592201;19;20010;-72
2024/01/11 02:38:26;;;;;;;4.85;3.53;;;15.50;99.90;;;;;;4592762;19;20006;-72
2024/01/11 02:40:03;;;;;;;4.72;3.13;;;15.50;99.90;;;;;;4593191;19;20006;-72
2024/01/11 02:41:37;;;;;;;4.35;3.10;;;15.50;99.90;;;;;;4591341;19;20007;-72
2024/01/11 02:43:11;;;;;;;5.47;3.83;;;15.50;99.90;;;;;;4591967;19;19998;-71
2024/01/11 02:44:46;;;;;;;4.30;2.90;;;15.50;99.90;;;;;;4591697;19;20006;-72
2024/01/11 02:46:20;;;;;;;5.05;3.42;;;15.50;99.90;;;;;;4591914;19;20332;-72
2024/01/11 02:47:55;;;;;;;5.32;3.38;;;15.50;99.90;;;;;;4592850;19;20006;-72
2024/01/11 02:49:31;;;;;;;5.00;3.63;;;15.50;99.90;;;;;;4593002;19;20091;-72
2024/01/11 02:51:06;;;;;;;5.40;3.80;;;15.50;99.90;;;;;;4590758;19;20041;-72
2024/01/11 02:52:40;;;;;;;5.30;3.78;;;15.50;99.90;;;;;;4591634;19;20415;-72
2024/01/11 02:54:17;;;;;;;4.93;3.55;;;15.50;99.90;;;;;;4593111;19;20082;-72
2024/01/11 02:55:52;;;;;;;5.20;3.78;;;15.60;99.90;;;;;;4592759;19;20009;-72
2024/01/11 02:57:26;;;;;;;4.10;3.00;;;15.50;99.90;;;;;;4592768;19;19998;-72
2024/01/11 02:59:01;;;;;;;4.50;3.53;;;15.50;99.90;;;;;;4593071;19;20292;-72
2024/01/11 03:00:35;;;;;;;5.85;4.00;;;15.60;99.90;;;;;;4592959;19;20013;-71
2024/01/11 03:02:11;;;;;;;5.28;3.45;;;15.60;99.90;;;;;;4591613;19;20003;-71
2024/01/11 03:03:47;;;;;;;5.20;3.58;;;15.60;99.90;;;;;;4592983;19;20298;-72
2024/01/11 03:05:21;;;;;;;6.03;3.60;;;15.60;99.90;;;;;;4592645;19;20009;-72
2024/01/11 03:06:55;;;;;;;5.05;3.55;;;15.60;99.90;;;;;;4592892;19;20432;-72
2024/01/11 03:08:32;;;;;;;5.93;3.83;;;15.60;99.90;;;;;;4592931;19;20006;-72
2024/01/11 03:10:06;;;;;;;5.38;3.72;;;15.60;99.90;;;;;;4592491;19;20005;-71
2024/01/11 03:11:40;;;;;;;5.03;3.53;;;15.60;99.90;;;;;;4591010;19;20014;-72
2024/01/11 03:13:17;;;;;;;4.35;2.70;;;15.60;99.90;;;;;;4592524;19;20103;-72
2024/01/11 03:14:52;;;;;;;4.47;2.88;;;15.60;99.90;;;;;;4591423;19;20045;-72
2024/01/11 03:16:27;;;;;;;5.60;3.58;;;15.60;99.90;;;;;;4591286;19;20031;-72
2024/01/11 03:18:03;;;;;;;4.93;3.75;;;15.60;99.90;;;;;;4592051;19;20006;-72
2024/01/11 03:19:40;;;;;;;4.80;3.15;;;15.60;99.90;;;;;;4592583;19;20471;-72
2024/01/11 03:21:14;;;;;;;4.65;3.15;;;15.60;99.90;;;;;;4592206;19;20080;-72
2024/01/11 03:22:52;;;;;;;8.27;3.30;;;15.60;99.90;;;;;;4592387;19;20003;-72
2024/01/11 03:24:27;;;;;;;5.35;2.97;;;15.60;99.90;;;;;;4591213;19;20020;-72
2024/01/11 03:26:01;;;;;;;5.53;3.30;;;15.60;99.90;;;;;;4591868;19;20003;-72
2024/01/11 03:27:36;;;;;;;5.00;3.20;;;15.60;99.90;;;;;;4592243;19;20096;-72
2024/01/11 03:29:10;;;;;;;5.03;3.13;;;15.60;99.90;;;;;;4592197;19;20023;-72
2024/01/11 03:30:44;;;;;;;5.13;3.15;;;15.60;99.90;;;;;;4591779;19;20335;-71
2024/01/11 03:32:19;;;;;;;5.10;3.08;;;15.60;99.90;;;;;;4591522;19;20027;-72
2024/01/11 03:33:53;;;;;;;4.85;2.72;;;15.60;99.90;;;;;;4592378;19;20002;-72
2024/01/11 03:35:27;;;;;;;4.85;3.08;;;15.60;99.90;;;;;;4592049;19;20002;-72
2024/01/11 03:37:03;;;;;;;4.22;2.78;;;15.60;99.90;;;;;;4592091;19;20003;-72
2024/01/11 03:38:38;;;;;;;4.80;3.33;;;15.70;99.90;;;;;;4591970;19;20002;-72
2024/01/11 03:40:13;;;;;;;5.22;3.47;;;15.70;99.90;;;;;;4592269;19;20008;-72
2024/01/11 03:41:48;;;;;;;4.80;3.35;;;15.70;99.90;;;;;;4591733;19;20425;-72
2024/01/11 03:43:22;;;;;;;5.15;3.28;;;15.70;99.90;;;;;;4591941;19;20002;-72
2024/01/11 03:44:56;;;;;;;5.97;3.25;;;15.70;99.90;;;;;;4591906;19;20062;-72
2024/01/11 03:46:32;;;;;;;4.13;2.85;;;15.70;99.90;;;;;;4591961;19;20003;-72
2024/01/11 03:48:06;;;;;;;5.07;3.75;;;15.70;99.90;;;;;;4592056;19;20422;-72
2024/01/11 03:49:40;;;;;;;5.10;3.67;;;15.70;99.90;;;;;;4592097;19;20088;-72
2024/01/11 03:51:16;;;;;;;7.18;3.83;;;15.70;99.90;;;;;;4590846;19;20017;-72
2024/01/11 03:52:52;;;;;;;4.30;3.00;;;15.70;99.90;;;;;;4591700;19;20336;-72
2024/01/11 03:54:26;;;;;;;5.18;3.40;;;15.70;99.90;;;;;;4592024;19;20342;-72
2024/01/11 03:56:01;;;;;;;5.35;3.17;;;15.70;99.90;;;;;;4592006;19;20306;-72
2024/01/11 03:57:35;;;;;;;4.50;2.83;;;15.70;99.90;;;;;;4590343;19;20003;-72
2024/01/11 03:59:10;;;;;;;5.15;3.47;;;15.60;99.90;;;;;;4590338;19;20020;-71
2024/01/11 04:00:46;;;;;;;6.63;3.45;;;15.60;99.90;;;;;;4590386;19;20482;-72
2024/01/11 04:02:19;;;;;;;4.60;3.10;;;15.60;99.90;;;;;;4590282;19;20006;-72
2024/01/11 04:03:55;;;;;;;4.53;2.78;;;15.60;99.90;;;;;;4590596;19;20006;-72
2024/01/11 04:05:31;;;;;;;4.18;2.97;;;15.60;99.90;;;;;;4591384;19;20311;-72
2024/01/11 04:07:05;;;;;;;4.40;2.97;;;15.70;99.90;;;;;;4590262;19;20010;-72
2024/01/11 04:08:40;;;;;;;3.95;3.00;;;15.70;99.90;;;;;;4590478;19;20335;-72
2024/01/11 04:10:18;;;;;;;4.97;2.80;;;15.60;99.90;;;;;;4591677;19;20033;-72
2024/01/11 04:11:52;;;;;;;4.65;2.85;;;15.70;99.90;;;;;;4590648;19;20014;-72
2024/01/11 04:13:26;;;;;;;4.75;3.08;;;15.60;99.90;;;;;;4593023;19;20066;-72
2024/01/11 04:15:02;;;;;;;4.68;3.15;;;15.70;99.90;;;;;;4596180;19;20003;-72
2024/01/11 04:16:43;;;;;;;4.75;2.83;;;15.70;99.90;;;;;;4596119;19;19999;-72
2024/01/11 04:18:17;;;;;;;4.18;3.10;;;15.70;99.90;;;;;;4596107;19;20013;-72
2024/01/11 04:19:53;;;;;;;4.40;3.10;;;15.70;99.90;;;;;;4596087;19;20003;-72
2024/01/11 04:21:30;;;;;;;4.95;3.22;;;15.70;99.90;;;;;;4595783;19;20015;-72
2024/01/11 04:23:06;;;;;;;4.07;2.92;;;15.70;99.90;;;;;;4596002;19;20299;-72
2024/01/11 04:24:43;;;;;;;4.25;3.03;;;15.70;99.90;;;;;;4595929;19;20023;-72
2024/01/11 04:26:17;;;;;;;4.97;3.15;;;15.70;99.90;;;;;;4596270;19;20007;-72
2024/01/11 04:27:51;;;;;;;4.72;3.25;;;15.70;99.90;;;;;;4594512;19;20496;-72
2024/01/11 04:29:27;;;;;;;6.07;3.92;;;15.70;99.90;;;;;;4595537;19;20014;-72
2024/01/11 04:31:01;;;;;;;5.25;3.10;;;15.80;99.90;;;;;;4594986;19;20011;-72
2024/01/11 04:32:37;;;;;;;4.43;3.08;;;15.70;99.90;;;;;;4594302;19;20003;-72
2024/01/11 04:34:12;;;;;;;5.20;3.38;;;15.70;99.90;;;;;;4595785;19;20323;-72
2024/01/11 04:35:46;;;;;;;5.88;2.92;;;15.70;99.90;;;;;;4595578;19;20320;-72
2024/01/11 04:37:20;;;;;;;5.07;3.05;;;15.70;99.90;;;;;;4595633;19;20470;-72
2024/01/11 04:38:55;;;;;;;4.28;3.00;;;15.70;99.90;;;;;;4595957;19;20422;-72
2024/01/11 04:40:29;;;;;;;4.03;2.50;;;15.70;99.90;;;;;;4595519;19;20307;-72
2024/01/11 04:42:03;;;;;;;3.42;2.65;;;15.70;99.90;;;;;;4594755;19;20026;-72
2024/01/11 04:43:41;;;;;;;3.45;2.47;;;15.70;99.90;;;;;;4595871;19;20291;-70
2024/01/11 04:45:15;;;;;;;5.18;2.70;;;15.70;99.90;;;;;;4594497;19;20013;-71
2024/01/11 04:46:49;;;;;;;3.97;2.67;;;15.80;99.90;;;;;;4595056;19;20006;-71
2024/01/11 04:48:24;;;;;;;4.13;2.70;;;16.00;99.90;;;;;;4595374;19;20011;-71
2024/01/11 04:49:58;;;;;;;4.50;2.90;;;16.20;99.90;;;;;;4595405;19;19999;-71
2024/01/11 04:51:32;;;;;;;4.82;2.67;;;16.40;99.90;;;;;;4593894;19;20459;-72
2024/01/11 04:53:08;;;;;;;4.13;2.97;;;16.70;99.90;;;;;;4595664;19;20066;-72
2024/01/11 04:54:42;;;;;;;25.42;17.88;;;16.40;99.90;;;;;;4595323;19;20090;-71
2024/01/11 04:56:16;;;;;;;27.65;18.63;;;15.90;97.60;;;;;;4595291;19;20027;-72
2024/01/11 04:57:51;;;;;;;22.45;15.93;;;15.40;96.70;;;;;;4594031;19;20024;-72
2024/01/11 04:59:27;;;;;;;22.52;16.48;;;15.10;96.10;;;;;;4594963;19;20007;-72
2024/01/11 05:01:01;;;;;;;23.17;15.95;;;14.90;96.10;;;;;;4595135;19;20429;-72
2024/01/11 05:02:37;;;;;;;24.10;17.30;;;14.70;95.60;;;;;;4593607;19;20017;-72
2024/01/11 05:04:11;;;;;;;23.83;17.95;;;14.70;95.70;;;;;;4595065;19;20015;-72
2024/01/11 05:05:45;;;;;;;23.13;17.63;;;14.60;95.60;;;;;;4595358;19;20330;-72
2024/01/11 05:07:20;;;;;;;22.15;15.07;;;14.60;95.60;;;;;;4595016;19;20028;-70
2024/01/11 05:08:54;;;;;;;22.88;16.00;;;14.60;95.60;;;;;;4595286;19;20422;-71
2024/01/11 05:10:28;;;;;;;21.67;14.68;;;14.60;95.60;;;;;;4593384;19;20095;-73
2024/01/11 05:12:04;;;;;;;23.30;14.93;;;14.60;96.20;;;;;;4593456;19;20019;-71
2024/01/11 05:13:39;;;;;;;24.90;16.13;;;14.60;95.40;;;;;;4594858;19;20031;-72
2024/01/11 05:15:15;;;;;;;24.08;16.20;;;14.50;95.30;;;;;;4593879;19;20516;-72
2024/01/11 05:16:50;;;;;;;27.30;16.73;;;14.50;95.10;;;;;;4594562;19;20013;-72
2024/01/11 05:18:24;;;;;;;26.45;17.38;;;14.40;95.00;;;;;;4594834;19;20020;-72
2024/01/11 05:19:58;;;;;;;27.92;17.92;;;14.40;96.10;;;;;;4594746;19;20007;-71
2024/01/11 05:21:33;;;;;;;26.35;16.40;;;14.30;95.10;;;;;;4594351;19;20011;-72
2024/01/11 05:23:08;;;;;;;21.45;15.40;;;14.40;95.00;;;;;;4594709;19;20002;-79
2024/01/11 05:24:42;;;;;;;22.52;15.02;;;14.30;94.90;;;;;;4593205;19;20053;-77
2024/01/11 05:26:19;;;;;;;23.75;16.23;;;14.20;94.70;;;;;;4592975;19;20030;-73
2024/01/11 05:27:53;;;;;;;27.30;19.25;;;14.20;94.70;;;;;;4593266;19;20318;-72
2024/01/11 05:29:27;;;;;;;22.65;16.83;;;14.10;94.70;;;;;;4594302;19;20015;-73
2024/01/11 05:31:02;;;;;;;24.92;17.38;;;14.10;94.70;;;;;;4593905;19;20017;-73
2024/01/11 05:32:36;;;;;;;24.85;18.08;;;14.10;94.60;;;;;;4593301;19;20002;-73
2024/01/11 05:34:12;;;;;;;36.33;22.13;;;14.10;94.60;;;;;;4594507;19;19999;-73
2024/01/11 05:35:47;;;;;;;33.25;21.88;;;14.10;94.60;;;;;;4594477;19;20007;-72
2024/01/11 05:37:21;;;;;;;37.67;22.63;;;14.10;94.60;;;;;;4594407;19;20002;-72
2024/01/11 05:38:56;;;;;;;41.65;23.83;;;14.10;94.70;;;;;;4594347;19;20019;-73
2024/01/11 05:40:32;;;;;;;41.33;23.48;;;14.20;94.50;;;;;;4594437;19;20006;-72
2024/01/11 05:42:07;;;;;;;34.92;20.20;;;14.30;94.50;;;;;;4593349;19;20013;-73
2024/01/11 05:43:42;;;;;;;34.28;21.73;;;14.30;94.30;;;;;;4594269;19;20340;-72
2024/01/11 05:45:17;;;;;;;33.35;20.15;;;14.30;94.10;;;;;;4594319;19;20023;-72
2024/01/11 05:46:52;;;;;;;28.17;19.48;;;14.40;94.10;;;;;;4594134;19;19998;-73
2024/01/11 05:48:25;;;;;;;26.80;18.75;;;14.40;94.00;;;;;;4594456;19;20016;-73
2024/01/11 05:50:01;;;;;;;40.38;29.08;;;14.50;94.00;;;;;;4594218;19;20426;-73
2024/01/11 05:51:37;;;;;;;31.95;24.15;;;14.50;93.90;;;;;;4592918;19;20006;-73
2024/01/11 05:53:12;;;;;;;34.30;24.83;;;14.60;93.90;;;;;;4592796;19;20010;-70
2024/01/11 05:54:47;;;;;;;27.92;19.83;;;14.60;93.70;;;;;;4594076;19;20389;-72
2024/01/11 05:56:21;;;;;;;24.10;16.23;;;14.60;93.60;;;;;;4594031;19;20517;-72
2024/01/11 05:57:55;;;;;;;28.48;18.58;;;14.70;93.60;;;;;;4594225;19;20458;-73
2024/01/11 05:59:31;;;;;;;33.63;20.58;;;14.70;93.50;;;;;;4592711;19;20306;-73
2024/01/11 06:01:05;;;;;;;46.40;25.92;;;14.70;93.40;;;;;;4593591;19;20002;-73
2024/01/11 06:02:39;;;;;;;40.47;24.15;;;14.70;93.40;;;;;;4592770;19;20006;-73
2024/01/11 06:04:16;;;;;;;27.08;17.73;;;14.70;93.30;;;;;;4594136;19;20092;-73
2024/01/11 06:05:50;;;;;;;25.88;17.40;;;14.60;93.30;;;;;;4593760;19;20470;-72
2024/01/11 06:07:24;;;;;;;24.13;16.15;;;14.60;93.30;;;;;;4593778;19;20005;-73
2024/01/11 06:08:59;;;;;;;36.65;22.25;;;14.60;93.30;;;;;;4593807;19;20035;-73
2024/01/11 06:10:34;;;;;;;24.83;17.48;;;14.60;93.20;;;;;;4593547;19;20438;-72
2024/01/11 06:12:08;;;;;;;25.00;16.88;;;14.50;93.20;;;;;;4592484;19;20036;-73
2024/01/11 06:13:44;;;;;;;22.40;15.65;;;14.40;93.20;;;;;;4593962;19;20062;-73
2024/01/11 06:15:18;;;;;;;25.10;17.30;;;14.40;93.20;;;;;;4593607;19;20065;-72
2024/01/11 06:16:51;;;;;;;22.75;16.90;;;14.40;93.30;;;;;;4592537;19;20360;-72
2024/01/11 06:18:28;;;;;;;21.92;16.58;;;14.30;93.30;;;;;;4593346;19;20035;-72
2024/01/11 06:20:03;;;;;;;21.70;15.95;;;14.30;93.30;;;;;;4593476;19;20448;-72
2024/01/11 06:21:38;;;;;;;29.58;18.15;;;14.20;93.30;;;;;;4592842;19;20006;-72
2024/01/11 06:23:13;;;;;;;26.95;19.90;;;14.20;93.40;;;;;;4593746;19;20311;-72
2024/01/11 06:24:47;;;;;;;26.75;18.95;;;14.20;93.40;;;;;;4593434;19;20006;-73
2024/01/11 06:26:22;;;;;;;45.17;29.92;;;14.10;93.40;;;;;;4593111;19;20002;-74
2024/01/11 06:27:58;;;;;;;43.42;26.98;;;14.10;93.40;;;;;;4593240;19;20006;-73
2024/01/11 06:29:35;;;;;;;32.00;20.63;;;14.10;93.50;;;;;;4591801;19;20018;-73
2024/01/11 06:31:10;;;;;;;24.27;17.55;;;14.10;93.50;;;;;;4592502;19;20312;-73
2024/01/11 06:32:47;;;;;;;26.92;18.70;;;14.00;93.60;;;;;;4593168;19;20354;-70
2024/01/11 06:34:21;;;;;;;25.33;17.95;;;14.00;93.60;;;;;;4593056;19;20445;-73
2024/01/11 06:35:55;;;;;;;28.73;19.17;;;14.00;93.60;;;;;;4592313;19;20002;-72
2024/01/11 06:37:32;;;;;;;25.50;17.52;;;13.90;93.60;;;;;;4593367;19;20010;-72
2024/01/11 06:39:06;;;;;;;24.75;17.75;;;13.90;93.70;;;;;;4591589;19;20002;-73
2024/01/11 06:40:42;;;;;;;23.73;17.95;;;13.90;93.70;;;;;;4592579;19;20426;-72
2024/01/11 06:42:18;;;;;;;32.38;27.17;;;13.90;93.70;;;;;;4590735;19;20082;-72
2024/01/11 06:43:52;;;;;;;52.28;44.85;;;13.80;93.80;;;;;;4592536;19;20032;-73
2024/01/11 06:45:26;;;;;;;152.77;112.78;;;13.80;93.80;;;;;;4592628;19;20426;-72
2024/01/11 06:47:03;;;;;;;288.30;203.85;;;13.80;93.80;;;;;;4591375;19;20061;-73
2024/01/11 06:48:38;;;;;;;329.65;224.27;;;13.70;93.80;;;;;;4592401;19;20030;-72
2024/01/11 06:50:13;;;;;;;329.45;213.25;;;13.70;93.90;;;;;;4592642;19;20061;-72
2024/01/11 06:51:48;;;;;;;159.18;107.72;;;13.70;93.90;;;;;;4590095;19;20328;-73
2024/01/11 06:53:22;;;;;;;73.85;52.53;;;13.70;94.00;;;;;;4592392;19;20425;-72
2024/01/11 06:54:56;;;;;;;50.03;40.78;;;13.70;94.00;;;;;;4592701;19;20006;-74
2024/01/11 06:56:32;;;;;;;43.83;34.67;;;13.60;94.00;;;;;;4592721;19;20307;-72
2024/01/11 06:58:06;;;;;;;58.45;34.58;;;13.60;94.00;;;;;;4592572;19;19998;-73
2024/01/11 06:59:40;;;;;;;47.53;29.02;;;13.60;94.10;;;;;;4592858;19;20381;-72
2024/01/11 07:01:15;;;;;;;36.28;23.95;;;13.60;94.10;;;;;;4592532;19;20013;-72
2024/01/11 07:02:49;;;;;;;33.97;23.95;;;13.60;94.20;;;;;;4592852;19;20006;-73
2024/01/11 07:04:23;;;;;;;37.13;24.45;;;13.50;94.20;;;;;;4591065;19;20006;-72
2024/01/11 07:06:00;;;;;;;33.65;22.83;;;13.50;94.20;;;;;;4592221;19;20014;-70
2024/01/11 07:07:34;;;;;;;36.55;25.45;;;13.50;94.30;;;;;;4592544;19;20031;-73
2024/01/11 07:09:10;;;;;;;44.22;25.60;;;13.50;94.30;;;;;;4592527;19;19998;-73
2024/01/11 07:10:45;;;;;;;34.63;21.55;;;13.50;94.30;;;;;;4590938;19;20007;-70
2024/01/11 07:12:20;;;;;;;21.55;15.68;;;13.50;94.40;;;;;;4590908;19;20014;-69
2024/01/11 07:13:54;;;;;;;30.02;19.65;;;13.40;94.40;;;;;;4592385;19;20007;-68
2024/01/11 07:15:29;;;;;;;45.25;24.73;;;13.40;94.40;;;;;;4592717;19;20003;-69
2024/01/11 07:17:03;;;;;;;71.68;33.30;;;13.40;94.50;;;;;;4592357;19;20003;-69
2024/01/11 07:18:40;;;;;;;34.35;21.50;;;13.40;94.50;;;;;;4592284;19;20009;-69
2024/01/11 07:20:16;;;;;;;36.67;20.08;;;13.50;94.60;;;;;;4591018;19;20091;-69
2024/01/11 07:21:51;;;;;;;64.65;27.55;;;13.50;94.50;;;;;;4591439;19;20030;-70
2024/01/11 07:23:25;;;;;;;67.90;30.35;;;13.50;94.50;;;;;;4592226;19;20066;-69
2024/01/11 07:25:00;;;;;;;42.85;23.40;;;13.40;94.50;;;;;;4592230;19;20014;-69
2024/01/11 07:26:34;;;;;;;23.47;16.77;;;13.50;94.50;;;;;;4592155;19;20426;-69
2024/01/11 07:28:08;;;;;;;32.88;19.92;;;13.50;94.60;;;;;;4592378;19;20035;-69
2024/01/11 07:29:44;;;;;;;23.90;16.75;;;13.40;94.60;;;;;;4592466;19;20366;-70
2024/01/11 07:31:18;;;;;;;41.83;20.60;;;13.40;94.60;;;;;;4591559;19;20118;-75
2024/01/11 07:32:53;;;;;;;32.33;18.77;;;13.40;94.70;;;;;;4592340;19;20023;-79
2024/01/11 07:34:29;;;;;;;49.60;26.98;;;13.30;94.70;;;;;;4593101;19;20010;-83
2024/01/11 07:36:03;;;;;;;50.92;22.50;;;13.30;94.70;;;;;;4592671;19;19999;-75
2024/01/11 07:37:38;;;;;;;21.53;14.10;;;13.30;94.70;;;;;;4592165;19;20458;-71
2024/01/11 07:39:14;;;;;;;20.92;15.23;;;13.30;94.80;;;;;;4592063;19;20218;-75
2024/01/11 07:40:49;;;;;;;46.88;22.88;;;13.30;94.80;;;;;;4591883;19;20013;-67
2024/01/11 07:42:24;;;;;;;49.42;24.38;;;13.30;94.90;;;;;;4591254;19;20013;-67
2024/01/11 07:43:59;;;;;;;31.43;17.97;;;13.30;94.90;;;;;;4591921;19;20035;-68
2024/01/11 07:45:34;;;;;;;84.82;54.45;;;13.30;95.00;;;;;;4591787;19;19998;-69
2024/01/11 07:47:08;;;;;;;93.13;63.40;;;13.30;95.00;;;;;;4591782;19;20010;-70
2024/01/11 07:48:43;;;;;;;121.43;77.18;;;13.30;95.00;;;;;;4593916;19;20324;-69
2024/01/11 07:50:17;;;;;;;118.20;54.28;;;13.30;95.00;;;;;;4596397;19;20066;-68
2024/01/11 07:51:51;;;;;;;45.00;23.50;;;13.30;95.00;;;;;;4594667;19;20032;-69
2024/01/11 07:53:26;;;;;;;103.72;38.72;;;13.30;95.10;;;;;;4596515;19;20434;-69
2024/01/11 07:55:06;;;;;;;48.93;24.87;;;13.30;95.10;;;;;;4596457;19;20006;-69
2024/01/11 07:56:41;;;;;;;24.07;15.57;;;13.30;95.10;;;;;;4596750;19;20007;-69
2024/01/11 07:58:16;;;;;;;33.17;18.85;;;13.30;95.10;;;;;;4596401;19;20011;-71
2024/01/11 07:59:50;;;;;;;72.23;38.00;;;13.20;95.10;;;;;;4596267;19;19999;-70
2024/01/11 08:01:24;;;;;;;59.78;36.90;;;13.20;95.20;;;;;;4595812;19;19999;-70
2024/01/11 08:03:01;;;;;;;51.95;27.42;;;13.20;95.20;;;;;;4596373;19;20002;-70
2024/01/11 08:04:38;;;;;;;51.40;25.52;;;13.20;95.20;;;;;;4594891;19;20030;-69
2024/01/11 08:06:12;;;;;;;49.45;28.80;;;13.20;95.20;;;;;;4596082;19;20013;-70
2024/01/11 08:07:48;;;;;;;25.37;17.90;;;13.20;95.30;;;;;;4596415;19;19999;-70
2024/01/11 08:09:22;;;;;;;27.15;19.10;;;13.20;95.30;;;;;;4595188;19;20006;-70
2024/01/11 08:10:55;;;;;;;21.57;16.50;;;13.20;95.30;;;;;;4594645;19;20002;-69
2024/01/11 08:12:31;;;;;;;20.90;16.55;;;13.20;95.40;;;;;;4593035;19;20112;-69
2024/01/11 08:14:05;;;;;;;16.37;13.57;;;13.20;95.40;;;;;;4596095;19;20343;-69
2024/01/11 08:15:40;;;;;;;28.33;18.87;;;13.20;95.50;;;;;;4596104;19;20002;-65
2024/01/11 08:17:15;;;;;;;21.00;15.97;;;13.20;95.50;;;;;;4596170;19;20029;-72
2024/01/11 08:18:51;;;;;;;15.83;12.50;;;13.20;95.50;;;;;;4596066;19;20317;-68
2024/01/11 08:20:26;;;;;;;23.37;15.40;;;13.10;95.50;;;;;;4595024;19;20014;-71